Time;durP1;ratioP1;P1;durP2;ratioP2;P2;SDS_P1;SDS_P2;PMS_P1;PMS_P2;Temp;Humidity;BMP_temperature;BMP_pressure;BME280_temperature;BME280_humidity;BME280_pressure;Samples;Min_cycle;Max_cycle;Signal;HPM_P1;HPM_P2
2024/01/23 00:01:33;;;;;;;4.45;0.98;;;6.10;99.90;;;;;;5008733;28;20486;-73
2024/01/23 00:04:02;;;;;;;4.38;1.38;;;6.20;99.90;;;;;;5010950;28;20038;-72
2024/01/23 00:06:28;;;;;;;3.38;0.82;;;6.10;99.90;;;;;;5005152;28;20042;-72
2024/01/23 00:08:53;;;;;;;2.15;0.80;;;6.10;99.90;;;;;;5001904;28;20702;-72
2024/01/23 00:11:20;;;;;;;3.28;0.98;;;6.20;99.90;;;;;;5005092;28;20034;-73
2024/01/23 00:13:45;;;;;;;6.05;1.05;;;6.20;99.90;;;;;;5010457;28;20581;-72
2024/01/23 00:16:12;;;;;;;5.32;0.68;;;6.10;99.90;;;;;;5009031;28;20030;-72
2024/01/23 00:18:38;;;;;;;4.70;0.88;;;6.10;99.90;;;;;;5010445;28;20049;-73
2024/01/23 00:21:04;;;;;;;6.30;0.77;;;6.00;99.90;;;;;;5009687;28;20466;-72
2024/01/23 00:23:29;;;;;;;3.13;0.90;;;6.00;99.90;;;;;;5008793;28;20030;-73
2024/01/23 00:25:55;;;;;;;4.03;1.00;;;6.00;99.90;;;;;;4994417;28;20030;-72
2024/01/23 00:28:21;;;;;;;4.35;1.00;;;5.90;99.90;;;;;;4999958;28;20029;-72
2024/01/23 00:30:46;;;;;;;3.63;0.80;;;5.90;99.90;;;;;;5008671;28;20074;-72
2024/01/23 00:33:12;;;;;;;3.83;1.10;;;5.90;99.90;;;;;;5010266;28;20739;-72
2024/01/23 00:35:38;;;;;;;2.72;1.40;;;5.80;99.90;;;;;;5010416;28;20430;-71
2024/01/23 00:38:04;;;;;;;6.03;1.20;;;5.80;99.90;;;;;;5010307;28;20436;-72
2024/01/23 00:40:29;;;;;;;6.38;0.90;;;5.90;99.90;;;;;;5011045;28;20040;-72
2024/01/23 00:42:55;;;;;;;5.68;0.80;;;5.80;99.90;;;;;;5001895;28;20855;-71
2024/01/23 00:45:20;;;;;;;4.60;0.70;;;5.80;99.90;;;;;;5009042;28;20054;-72
2024/01/23 00:47:46;;;;;;;2.70;0.70;;;5.80;99.90;;;;;;4992622;28;20053;-72
2024/01/23 00:50:12;;;;;;;4.97;0.80;;;5.80;99.90;;;;;;4991277;28;20522;-72
2024/01/23 00:52:38;;;;;;;6.03;0.82;;;5.80;99.90;;;;;;4990222;28;20038;-72
2024/01/23 00:55:04;;;;;;;7.32;0.88;;;5.70;99.90;;;;;;5000470;28;20034;-72
2024/01/23 00:57:31;;;;;;;9.20;0.90;;;5.70;99.90;;;;;;4994390;28;20045;-72
2024/01/23 00:59:57;;;;;;;4.70;0.90;;;5.70;99.90;;;;;;5004915;28;20034;-71
2024/01/23 01:02:22;;;;;;;4.68;1.15;;;5.70;99.90;;;;;;5004628;28;20029;-72
2024/01/23 01:04:48;;;;;;;7.43;1.02;;;5.70;99.90;;;;;;4994373;28;20414;-72
2024/01/23 01:07:14;;;;;;;4.13;1.10;;;5.50;99.90;;;;;;5008567;28;20026;-73
2024/01/23 01:09:40;;;;;;;6.75;0.80;;;5.60;99.90;;;;;;5008188;28;20030;-72
2024/01/23 01:12:06;;;;;;;5.80;1.17;;;5.60;99.90;;;;;;5006215;28;20459;-72
2024/01/23 01:14:33;;;;;;;7.95;1.50;;;5.60;99.90;;;;;;4997643;28;20116;-73
2024/01/23 01:16:59;;;;;;;3.15;1.15;;;5.50;99.90;;;;;;4997338;28;20022;-72
2024/01/23 01:19:25;;;;;;;5.18;1.00;;;5.40;99.90;;;;;;4990671;28;20034;-73
2024/01/23 01:21:51;;;;;;;6.63;0.88;;;5.40;99.90;;;;;;5001484;28;20041;-72
2024/01/23 01:24:17;;;;;;;6.57;1.00;;;5.40;99.90;;;;;;5007910;28;20066;-72
2024/01/23 01:26:43;;;;;;;5.90;0.95;;;5.40;99.90;;;;;;4989787;28;20502;-72
2024/01/23 01:29:08;;;;;;;7.55;1.10;;;5.40;99.90;;;;;;4994747;28;20037;-73
2024/01/23 01:31:34;;;;;;;1.48;0.63;;;5.40;99.90;;;;;;5007828;28;20399;-73
2024/01/23 01:33:59;;;;;;;7.45;1.27;;;5.40;99.90;;;;;;5008065;28;20089;-72
2024/01/23 01:36:25;;;;;;;2.97;0.70;;;5.50;99.90;;;;;;4994152;28;20481;-72
2024/01/23 01:38:51;;;;;;;6.22;1.10;;;5.50;99.90;;;;;;5008591;28;20036;-71
2024/01/23 01:41:16;;;;;;;7.30;1.05;;;5.50;99.90;;;;;;4993796;28;20081;-73
2024/01/23 01:43:42;;;;;;;5.18;1.30;;;5.50;99.90;;;;;;5008092;28;20529;-72
2024/01/23 01:46:24;;;;;;;9.93;0.80;;;5.60;99.90;;;;;;5009447;28;20042;-72
2024/01/23 01:48:51;;;;;;;4.93;0.93;;;5.60;99.90;;;;;;4998857;28;20062;-72
2024/01/23 01:51:25;;;;;;;8.40;1.35;;;5.60;99.90;;;;;;5003125;28;20057;-73
2024/01/23 01:53:51;;;;;;;6.43;1.33;;;5.60;99.90;;;;;;4998440;28;20038;-72
2024/01/23 01:56:19;;;;;;;2.83;0.70;;;5.60;99.90;;;;;;4993575;28;20028;-73
2024/01/23 01:58:46;;;;;;;2.88;0.88;;;5.60;99.90;;;;;;4992661;28;20034;-72
2024/01/23 02:01:13;;;;;;;7.10;0.90;;;5.60;99.90;;;;;;4991676;28;20541;-72
2024/01/23 02:03:39;;;;;;;3.50;0.80;;;5.70;99.90;;;;;;4992013;28;20582;-73
2024/01/23 02:06:06;;;;;;;4.00;1.02;;;5.60;99.90;;;;;;4994549;28;20105;-72
2024/01/23 02:08:34;;;;;;;6.80;0.68;;;5.60;99.90;;;;;;5004006;28;20034;-73
2024/01/23 02:11:01;;;;;;;6.47;0.43;;;5.60;99.90;;;;;;4989160;28;20029;-72
2024/01/23 02:13:27;;;;;;;2.88;0.60;;;5.50;99.90;;;;;;5009067;28;20026;-73
2024/01/23 02:15:53;;;;;;;4.80;0.70;;;5.50;99.90;;;;;;5008826;28;20042;-72
2024/01/23 02:18:18;;;;;;;3.97;0.82;;;5.50;99.90;;;;;;4994657;28;20040;-72
2024/01/23 02:20:45;;;;;;;2.53;0.75;;;5.50;99.90;;;;;;5003046;28;20042;-72
2024/01/23 02:23:14;;;;;;;6.40;1.38;;;5.40;99.90;;;;;;5004214;28;20042;-73
2024/01/23 02:25:44;;;;;;;4.97;0.73;;;5.50;99.90;;;;;;4999403;28;20425;-71
2024/01/23 02:28:11;;;;;;;8.68;0.77;;;5.50;99.90;;;;;;4990758;28;20038;-72
2024/01/23 02:30:37;;;;;;;5.35;0.70;;;5.40;99.90;;;;;;4989893;28;20034;-72
2024/01/23 02:33:04;;;;;;;5.38;0.75;;;5.40;99.90;;;;;;4996901;28;20038;-72
2024/01/23 02:35:30;;;;;;;7.07;1.05;;;5.40;99.90;;;;;;5003405;28;20034;-72
2024/01/23 02:37:56;;;;;;;8.45;0.88;;;5.40;99.90;;;;;;4999480;28;20034;-73
2024/01/23 02:40:22;;;;;;;5.68;0.75;;;5.40;99.90;;;;;;5009136;28;20475;-72
2024/01/23 02:42:48;;;;;;;5.00;0.80;;;5.40;99.90;;;;;;5006849;28;20049;-72
2024/01/23 02:45:14;;;;;;;6.45;1.02;;;5.40;99.90;;;;;;5007194;28;20657;-72
2024/01/23 02:47:39;;;;;;;5.57;0.70;;;5.40;99.90;;;;;;5004137;28;20470;-72
2024/01/23 02:50:06;;;;;;;5.85;0.73;;;5.30;99.90;;;;;;5012011;28;20025;-73
2024/01/23 02:52:31;;;;;;;6.88;0.80;;;5.20;99.90;;;;;;5013063;28;20037;-72
2024/01/23 02:55:00;;;;;;;5.75;0.65;;;5.20;99.90;;;;;;5011986;28;20026;-72
2024/01/23 02:57:26;;;;;;;7.90;0.60;;;5.20;99.90;;;;;;5026766;28;20033;-72
2024/01/23 02:59:53;;;;;;;5.60;0.90;;;5.10;99.90;;;;;;4995901;28;20038;-73
2024/01/23 03:02:19;;;;;;;6.03;1.05;;;5.20;99.90;;;;;;5008127;28;20043;-72
2024/01/23 03:04:45;;;;;;;3.47;1.10;;;5.20;99.90;;;;;;4997187;28;20038;-71
2024/01/23 03:07:11;;;;;;;2.70;0.75;;;5.20;99.90;;;;;;5012096;28;20053;-72
2024/01/23 03:09:37;;;;;;;7.50;1.05;;;5.20;99.90;;;;;;5000936;28;20635;-72
2024/01/23 03:12:16;;;;;;;4.13;0.85;;;5.20;99.90;;;;;;4995692;28;20026;-72
2024/01/23 03:14:45;;;;;;;6.22;0.70;;;5.10;99.90;;;;;;4992521;28;20417;-71
2024/01/23 03:17:12;;;;;;;6.90;1.20;;;5.10;99.90;;;;;;4993403;28;20030;-71
2024/01/23 03:19:38;;;;;;;6.97;1.00;;;5.10;99.90;;;;;;5000794;28;20030;-71
2024/01/23 03:22:04;;;;;;;7.68;1.10;;;5.10;99.90;;;;;;5000699;28;20026;-72
2024/01/23 03:24:30;;;;;;;7.65;1.30;;;5.00;99.90;;;;;;5001269;28;20038;-72
2024/01/23 03:26:56;;;;;;;6.93;1.00;;;5.10;99.90;;;;;;4992823;28;20112;-72
2024/01/23 03:29:22;;;;;;;9.15;1.63;;;5.00;99.90;;;;;;5012205;28;20041;-72
2024/01/23 03:31:49;;;;;;;5.65;1.00;;;5.00;99.90;;;;;;5011359;28;20088;-73
2024/01/23 03:34:15;;;;;;;9.73;1.20;;;5.00;99.90;;;;;;5010882;28;20048;-73
2024/01/23 03:36:41;;;;;;;10.73;1.15;;;5.00;99.90;;;;;;5009181;28;20120;-73
2024/01/23 03:39:07;;;;;;;6.18;0.98;;;5.00;99.90;;;;;;4992998;28;20110;-72
2024/01/23 03:41:35;;;;;;;13.70;1.55;;;5.00;99.90;;;;;;4998717;28;20018;-73
2024/01/23 03:44:02;;;;;;;4.13;1.33;;;5.00;99.90;;;;;;5009479;28;20140;-72
2024/01/23 03:46:28;;;;;;;2.05;0.57;;;5.00;99.90;;;;;;5011820;28;20068;-73
2024/01/23 03:48:53;;;;;;;6.13;0.85;;;5.00;99.90;;;;;;5010684;28;20053;-72
2024/01/23 03:51:19;;;;;;;9.63;1.30;;;5.00;99.90;;;;;;5010698;28;20030;-72
2024/01/23 03:53:45;;;;;;;6.13;0.82;;;5.00;99.90;;;;;;5004353;28;20109;-73
2024/01/23 03:56:10;;;;;;;7.55;0.85;;;5.00;99.90;;;;;;4994716;28;20034;-73
2024/01/23 03:58:36;;;;;;;3.53;0.85;;;5.00;99.90;;;;;;5009565;28;20038;-72
2024/01/23 04:01:01;;;;;;;10.25;1.77;;;5.00;99.90;;;;;;5002007;28;20501;-72
2024/01/23 04:03:28;;;;;;;5.38;0.90;;;5.00;99.90;;;;;;5026388;28;20032;-73
2024/01/23 04:05:54;;;;;;;4.95;0.90;;;5.00;99.90;;;;;;5008982;28;20029;-73
2024/01/23 04:08:19;;;;;;;5.97;1.10;;;5.00;99.90;;;;;;5006617;28;20030;-73
2024/01/23 04:10:45;;;;;;;9.90;0.93;;;5.00;99.90;;;;;;5008770;28;20030;-72
2024/01/23 04:13:10;;;;;;;9.30;0.90;;;5.00;99.90;;;;;;5005559;28;20556;-73
2024/01/23 04:15:36;;;;;;;13.02;1.10;;;5.00;99.90;;;;;;5009875;28;20498;-73
2024/01/23 04:18:02;;;;;;;8.10;1.10;;;5.10;99.90;;;;;;5010032;28;20034;-72
2024/01/23 04:20:28;;;;;;;4.78;0.93;;;5.10;99.90;;;;;;5024976;28;20034;-72
2024/01/23 04:22:53;;;;;;;6.90;0.90;;;5.10;99.90;;;;;;5008422;28;20492;-73
2024/01/23 04:25:19;;;;;;;8.40;0.82;;;5.10;99.90;;;;;;5009526;28;20085;-72
2024/01/23 04:27:44;;;;;;;11.20;1.20;;;5.00;99.90;;;;;;5006130;28;20030;-72
2024/01/23 04:30:11;;;;;;;7.85;1.10;;;5.00;99.90;;;;;;5000467;28;20068;-72
2024/01/23 04:32:36;;;;;;;10.32;1.83;;;5.10;99.90;;;;;;5011119;28;20038;-72
2024/01/23 04:35:02;;;;;;;6.35;1.20;;;5.00;99.90;;;;;;5010001;28;20552;-73
2024/01/23 04:37:28;;;;;;;7.28;1.13;;;5.10;99.90;;;;;;5010542;28;20053;-72
2024/01/23 04:39:53;;;;;;;5.63;1.42;;;5.10;99.90;;;;;;5008439;28;20583;-72
2024/01/23 04:42:21;;;;;;;8.25;1.05;;;5.10;99.90;;;;;;5006837;28;20497;-72
2024/01/23 04:44:47;;;;;;;6.57;1.10;;;5.10;99.90;;;;;;5010154;28;20478;-72
2024/01/23 04:47:12;;;;;;;13.45;1.45;;;5.10;99.90;;;;;;5010692;28;20087;-73
2024/01/23 04:49:38;;;;;;;9.45;1.30;;;5.10;99.90;;;;;;5026453;28;20037;-73
2024/01/23 04:52:04;;;;;;;11.00;1.48;;;5.10;99.90;;;;;;5009403;28;20461;-73
2024/01/23 04:54:29;;;;;;;12.48;1.50;;;5.10;99.90;;;;;;5009628;28;20033;-73
2024/01/23 04:56:55;;;;;;;9.85;1.92;;;5.10;99.90;;;;;;5008031;28;20037;-72
2024/01/23 04:59:21;;;;;;;8.43;1.17;;;5.00;99.90;;;;;;5010260;28;20040;-72
2024/01/23 05:01:46;;;;;;;12.75;1.25;;;5.10;99.90;;;;;;5001936;28;20795;-73
2024/01/23 05:04:12;;;;;;;17.73;1.60;;;5.10;99.90;;;;;;4999138;28;20037;-73
2024/01/23 05:06:37;;;;;;;14.10;1.60;;;5.10;99.90;;;;;;5012100;28;20042;-73
2024/01/23 05:09:03;;;;;;;7.40;2.00;;;5.10;99.90;;;;;;5008768;28;20482;-73
2024/01/23 05:11:29;;;;;;;16.48;1.77;;;5.00;99.90;;;;;;5010092;28;20117;-73
2024/01/23 05:13:54;;;;;;;19.45;2.35;;;5.10;99.90;;;;;;5007481;28;20038;-72
2024/01/23 05:16:20;;;;;;;10.07;1.85;;;5.10;99.90;;;;;;4990708;28;20045;-73
2024/01/23 05:18:46;;;;;;;11.35;1.50;;;5.20;99.90;;;;;;4990928;28;20113;-73
2024/01/23 05:21:14;;;;;;;13.13;1.52;;;5.10;99.90;;;;;;5000263;28;20026;-74
2024/01/23 05:23:40;;;;;;;12.32;1.85;;;5.10;99.90;;;;;;5009628;28;20041;-72
2024/01/23 05:26:07;;;;;;;14.10;1.83;;;5.10;99.90;;;;;;5009443;28;20125;-73
2024/01/23 05:28:32;;;;;;;11.27;1.42;;;5.00;99.90;;;;;;5008409;28;20018;-73
2024/01/23 05:30:58;;;;;;;14.13;1.73;;;5.00;99.90;;;;;;5009619;28;20037;-73
2024/01/23 05:33:24;;;;;;;13.80;1.35;;;5.10;99.90;;;;;;5007733;28;20367;-73
2024/01/23 05:35:49;;;;;;;10.27;1.67;;;5.10;99.90;;;;;;5009764;28;20041;-73
2024/01/23 05:38:15;;;;;;;7.80;1.75;;;5.10;99.90;;;;;;5007017;28;20029;-72
2024/01/23 05:40:41;;;;;;;10.65;2.08;;;5.00;99.90;;;;;;5018456;28;20093;-73
2024/01/23 05:43:06;;;;;;;12.95;1.33;;;5.00;99.90;;;;;;5010622;28;20096;-72
2024/01/23 05:45:32;;;;;;;15.07;1.85;;;5.00;99.90;;;;;;5007753;28;20422;-72
2024/01/23 05:47:57;;;;;;;11.73;1.38;;;5.00;99.90;;;;;;5008819;28;20116;-73
2024/01/23 05:50:24;;;;;;;12.80;1.60;;;5.00;99.90;;;;;;5008775;28;20121;-73
2024/01/23 05:52:49;;;;;;;17.02;1.60;;;5.00;99.90;;;;;;4989859;28;20121;-74
2024/01/23 05:55:15;;;;;;;13.35;2.00;;;5.00;99.90;;;;;;5000896;28;20748;-75
2024/01/23 05:57:41;;;;;;;14.10;1.60;;;4.90;99.90;;;;;;5007599;28;20125;-74
2024/01/23 06:00:09;;;;;;;14.68;1.80;;;4.90;99.90;;;;;;5008600;28;20041;-73
2024/01/23 06:02:35;;;;;;;12.63;1.20;;;4.90;99.90;;;;;;4997920;28;20493;-75
2024/01/23 06:05:01;;;;;;;14.35;2.13;;;4.90;99.90;;;;;;5008576;28;20069;-74
2024/01/23 06:07:27;;;;;;;13.65;1.55;;;4.90;99.90;;;;;;5009741;28;20092;-74
2024/01/23 06:09:52;;;;;;;12.20;2.15;;;4.90;99.90;;;;;;5023902;28;20025;-73
2024/01/23 06:12:18;;;;;;;9.73;1.90;;;4.80;99.90;;;;;;5008209;28;20034;-72
2024/01/23 06:14:44;;;;;;;20.23;2.25;;;4.80;99.90;;;;;;5024134;28;20042;-72
2024/01/23 06:17:09;;;;;;;17.83;1.98;;;4.80;99.90;;;;;;5007114;28;20034;-73
2024/01/23 06:19:35;;;;;;;12.95;2.05;;;4.80;99.90;;;;;;4998034;28;20026;-72
2024/01/23 06:22:01;;;;;;;12.52;1.90;;;4.80;99.90;;;;;;5007996;28;20095;-73
2024/01/23 06:24:26;;;;;;;11.48;2.05;;;4.80;99.90;;;;;;5009160;28;20091;-72
2024/01/23 06:26:52;;;;;;;17.52;2.33;;;4.80;99.90;;;;;;4997552;28;20406;-72
2024/01/23 06:29:18;;;;;;;14.52;1.75;;;4.80;99.90;;;;;;4999617;28;20438;-71
2024/01/23 06:31:43;;;;;;;11.95;2.00;;;4.80;99.90;;;;;;5005601;28;20026;-72
2024/01/23 06:34:09;;;;;;;18.95;2.05;;;4.80;99.90;;;;;;5004174;28;20125;-74
2024/01/23 06:36:37;;;;;;;11.43;1.92;;;4.80;99.90;;;;;;5008087;28;20037;-73
2024/01/23 06:39:03;;;;;;;15.15;2.20;;;4.90;99.90;;;;;;5003730;28;20100;-70
2024/01/23 06:41:28;;;;;;;12.23;2.13;;;4.90;99.90;;;;;;5006534;28;20121;-68
2024/01/23 06:43:54;;;;;;;12.85;1.92;;;4.90;99.90;;;;;;4987257;28;20064;-71
2024/01/23 06:46:20;;;;;;;14.10;2.33;;;4.90;99.90;;;;;;4987754;28;20034;-71
2024/01/23 06:48:46;;;;;;;13.05;2.00;;;4.90;99.90;;;;;;4994639;28;20386;-72
2024/01/23 06:51:11;;;;;;;16.75;2.20;;;4.90;99.90;;;;;;5007899;28;20029;-72
2024/01/23 06:53:37;;;;;;;16.70;1.98;;;4.90;99.90;;;;;;5008941;28;20034;-72
2024/01/23 06:56:03;;;;;;;19.42;1.90;;;4.90;99.90;;;;;;5007017;28;20089;-72
2024/01/23 06:58:29;;;;;;;12.48;2.00;;;5.00;99.90;;;;;;5008840;28;20044;-73
2024/01/23 07:00:54;;;;;;;9.90;1.40;;;5.00;99.90;;;;;;5008054;28;20037;-73
2024/01/23 07:03:20;;;;;;;16.45;2.78;;;5.00;99.90;;;;;;4998925;28;20383;-73
2024/01/23 07:05:46;;;;;;;8.50;1.80;;;5.00;99.90;;;;;;4989148;28;20030;-73
2024/01/23 07:08:12;;;;;;;17.05;2.83;;;4.90;99.90;;;;;;4999935;28;20022;-73
2024/01/23 07:10:37;;;;;;;13.77;1.60;;;4.80;99.90;;;;;;5007952;28;20026;-74
2024/01/23 07:13:03;;;;;;;16.45;2.50;;;4.80;99.90;;;;;;5007644;28;20058;-73
2024/01/23 07:15:29;;;;;;;11.32;1.88;;;4.80;99.90;;;;;;5008081;28;20045;-73
2024/01/23 07:17:55;;;;;;;14.30;2.45;;;4.80;99.90;;;;;;5008563;28;20375;-73
2024/01/23 07:20:20;;;;;;;6.75;1.75;;;4.90;99.90;;;;;;5007712;28;20490;-73
2024/01/23 07:22:46;;;;;;;13.77;1.80;;;4.90;99.90;;;;;;5008598;28;20485;-71
2024/01/23 07:25:12;;;;;;;15.13;1.95;;;4.90;99.90;;;;;;5002022;28;20034;-73
2024/01/23 07:27:37;;;;;;;11.57;2.00;;;4.90;99.90;;;;;;5008368;28;20096;-74
2024/01/23 07:30:04;;;;;;;11.15;1.75;;;5.00;99.90;;;;;;5007278;28;20061;-75
2024/01/23 07:32:30;;;;;;;10.55;1.60;;;5.10;99.90;;;;;;5025733;28;20088;-74
2024/01/23 07:34:55;;;;;;;10.68;1.40;;;5.10;99.90;;;;;;5011637;28;20037;-74
2024/01/23 07:37:21;;;;;;;8.60;1.55;;;5.10;99.90;;;;;;5011189;28;20026;-73
2024/01/23 07:39:49;;;;;;;7.53;1.50;;;5.10;99.90;;;;;;5005109;28;20030;-73
2024/01/23 07:42:14;;;;;;;7.15;1.60;;;5.10;99.90;;;;;;5010799;28;20030;-74
2024/01/23 07:44:42;;;;;;;12.05;1.50;;;5.00;99.90;;;;;;5010487;28;20076;-73
2024/01/23 07:47:08;;;;;;;15.13;1.63;;;5.00;99.90;;;;;;5011017;28;20741;-73
2024/01/23 07:49:33;;;;;;;9.32;1.75;;;4.90;99.90;;;;;;5011921;28;20140;-73
2024/01/23 07:51:59;;;;;;;9.38;1.75;;;4.90;99.90;;;;;;5010323;28;20111;-72
2024/01/23 07:54:25;;;;;;;11.20;1.85;;;4.90;99.90;;;;;;5011426;28;20030;-70
2024/01/23 07:56:51;;;;;;;9.48;1.30;;;4.90;99.90;;;;;;5011816;28;20029;-72
2024/01/23 07:59:17;;;;;;;9.93;1.60;;;4.80;99.90;;;;;;4995739;28;20038;-72
2024/01/23 08:01:43;;;;;;;9.45;1.30;;;4.70;99.90;;;;;;4992233;28;20030;-72
2024/01/23 08:04:10;;;;;;;7.65;1.25;;;4.70;99.90;;;;;;5008495;28;20095;-73
2024/01/23 08:06:36;;;;;;;10.27;1.60;;;4.60;99.90;;;;;;5009953;28;20113;-72
2024/01/23 08:09:04;;;;;;;9.23;1.55;;;4.50;99.90;;;;;;5010092;28;20030;-74
2024/01/23 08:11:31;;;;;;;9.13;1.33;;;4.60;99.90;;;;;;5010903;28;20080;-74
2024/01/23 08:13:56;;;;;;;5.88;1.20;;;4.60;99.90;;;;;;5008676;28;20030;-74
2024/01/23 08:16:22;;;;;;;6.53;1.10;;;4.60;99.90;;;;;;5009873;28;20064;-73
2024/01/23 08:18:48;;;;;;;5.35;0.98;;;4.60;99.90;;;;;;5010538;28;20387;-73
2024/01/23 08:21:13;;;;;;;3.90;0.95;;;4.70;99.90;;;;;;5000886;28;20034;-73
2024/01/23 08:23:39;;;;;;;5.03;1.10;;;4.80;99.90;;;;;;5011022;28;20125;-74
2024/01/23 08:26:05;;;;;;;5.00;0.90;;;4.90;99.90;;;;;;5010896;28;20026;-74
2024/01/23 08:28:30;;;;;;;3.47;0.85;;;4.90;99.90;;;;;;5011271;28;20617;-74
2024/01/23 08:31:02;;;;;;;2.05;0.60;;;4.90;99.90;;;;;;5002445;28;20048;-74
2024/01/23 08:33:28;;;;;;;5.55;0.60;;;5.00;99.90;;;;;;5011090;28;20137;-76
2024/01/23 08:35:53;;;;;;;2.67;0.60;;;5.00;99.90;;;;;;5010161;28;20156;-73
2024/01/23 08:38:20;;;;;;;1.77;0.68;;;5.00;99.90;;;;;;5010196;28;20033;-71
2024/01/23 08:40:45;;;;;;;2.25;0.80;;;4.80;99.90;;;;;;5008850;28;20034;-73
2024/01/23 08:43:11;;;;;;;5.22;0.80;;;4.60;99.90;;;;;;5009225;28;20041;-73
2024/01/23 08:45:36;;;;;;;5.90;0.80;;;4.50;99.90;;;;;;5010893;28;20522;-74
2024/01/23 08:48:03;;;;;;;2.35;0.75;;;4.40;99.90;;;;;;5009066;28;20022;-73
2024/01/23 08:50:28;;;;;;;5.30;0.57;;;4.30;99.90;;;;;;5009033;28;20033;-73
2024/01/23 08:52:54;;;;;;;4.90;0.90;;;4.30;99.90;;;;;;5010546;28;20052;-73
2024/01/23 08:55:20;;;;;;;3.28;0.82;;;4.40;99.90;;;;;;5009491;28;20037;-72
2024/01/23 08:57:46;;;;;;;6.22;1.02;;;4.70;99.90;;;;;;5010853;28;20128;-72
2024/01/23 09:00:12;;;;;;;1.08;0.52;;;4.90;99.90;;;;;;5009072;28;20541;-73
2024/01/23 09:02:38;;;;;;;3.83;0.70;;;5.00;99.90;;;;;;5009768;28;20149;-73
2024/01/23 09:05:05;;;;;;;3.28;0.70;;;5.20;99.90;;;;;;5008151;28;20867;-74
2024/01/23 09:07:30;;;;;;;6.30;0.85;;;5.10;99.90;;;;;;5010310;28;20054;-77
2024/01/23 09:09:56;;;;;;;3.60;0.70;;;5.10;99.90;;;;;;5009756;28;20057;-75
2024/01/23 09:12:22;;;;;;;4.35;0.70;;;5.20;99.90;;;;;;5009494;28;20477;-77
2024/01/23 09:14:48;;;;;;;4.97;0.55;;;5.50;99.90;;;;;;5024321;28;20665;-75
2024/01/23 09:17:14;;;;;;;3.97;0.70;;;5.40;99.90;;;;;;5009252;28;20080;-74
2024/01/23 09:19:39;;;;;;;3.45;1.00;;;5.30;99.90;;;;;;5009847;28;20136;-73
2024/01/23 09:22:06;;;;;;;4.63;1.20;;;5.30;99.90;;;;;;4995819;28;20126;-74
2024/01/23 09:24:32;;;;;;;11.88;1.17;;;5.30;99.90;;;;;;4990495;28;20041;-73
2024/01/23 09:27:01;;;;;;;4.45;1.10;;;5.30;99.90;;;;;;5000062;28;20638;-74
2024/01/23 09:29:33;;;;;;;6.00;0.82;;;5.40;99.90;;;;;;5008104;28;20113;-73
2024/01/23 09:31:59;;;;;;;8.27;1.00;;;5.40;99.90;;;;;;5009277;28;20487;-72
2024/01/23 09:34:25;;;;;;;7.68;1.50;;;5.40;99.90;;;;;;5005930;28;20053;-72
2024/01/23 09:36:50;;;;;;;3.28;1.10;;;5.30;99.90;;;;;;5009225;28;20122;-73
2024/01/23 09:39:17;;;;;;;5.05;1.23;;;5.40;99.90;;;;;;5007773;28;20171;-73
2024/01/23 09:41:50;;;;;;;7.40;1.10;;;5.70;99.90;;;;;;5008207;28;20382;-72
2024/01/23 09:44:19;;;;;;;12.70;1.55;;;5.60;99.90;;;;;;4997289;28;20049;-73
2024/01/23 09:46:44;;;;;;;10.40;1.50;;;5.50;99.90;;;;;;5009131;28;20046;-72
2024/01/23 09:49:11;;;;;;;6.53;1.60;;;5.50;99.90;;;;;;5007288;28;20037;-73
2024/01/23 09:51:46;;;;;;;7.88;1.65;;;5.40;99.90;;;;;;5009332;28;20381;-73
2024/01/23 09:54:12;;;;;;;9.85;1.35;;;5.40;99.90;;;;;;5008213;28;20533;-72
2024/01/23 09:56:41;;;;;;;5.95;1.42;;;5.40;99.90;;;;;;5009488;28;20030;-72
2024/01/23 09:59:11;;;;;;;7.40;0.93;;;5.40;99.90;;;;;;5008495;28;20025;-72
2024/01/23 10:01:37;;;;;;;14.27;1.73;;;5.50;99.90;;;;;;5009132;28;20544;-74
2024/01/23 10:04:04;;;;;;;6.72;1.27;;;5.60;99.90;;;;;;5009384;28;20370;-74
2024/01/23 10:06:33;;;;;;;9.13;1.52;;;5.60;99.90;;;;;;5008074;28;20103;-74
2024/01/23 10:08:59;;;;;;;10.07;1.35;;;5.60;99.90;;;;;;5008731;28;20743;-73
2024/01/23 10:11:33;;;;;;;5.88;1.30;;;5.60;99.90;;;;;;5001788;28;20042;-73
2024/01/23 10:14:01;;;;;;;11.98;1.67;;;5.60;99.90;;;;;;5009040;28;20385;-73
2024/01/23 10:16:26;;;;;;;7.88;1.10;;;5.60;99.90;;;;;;5008253;28;20216;-74
2024/01/23 10:18:52;;;;;;;4.32;1.15;;;5.60;99.90;;;;;;5007820;28;20463;-73
2024/01/23 10:21:22;;;;;;;10.40;1.33;;;5.60;99.90;;;;;;4997275;28;20061;-73
2024/01/23 10:23:52;;;;;;;8.02;1.48;;;5.60;99.90;;;;;;4989331;28;20467;-73
2024/01/23 10:26:18;;;;;;;6.88;1.08;;;5.60;99.90;;;;;;5009178;28;20030;-73
2024/01/23 10:28:45;;;;;;;9.05;1.63;;;5.70;99.90;;;;;;5009370;28;20564;-72
2024/01/23 10:31:11;;;;;;;7.55;1.60;;;5.70;99.90;;;;;;5005859;28;20034;-72
2024/01/23 10:33:38;;;;;;;10.80;1.52;;;5.70;99.90;;;;;;5005936;28;20112;-72
2024/01/23 10:36:05;;;;;;;6.32;1.27;;;5.60;99.90;;;;;;5008888;28;20030;-72
2024/01/23 10:38:31;;;;;;;11.40;0.98;;;5.60;99.90;;;;;;5008177;28;20029;-73
2024/01/23 10:40:59;;;;;;;7.38;1.33;;;5.50;99.90;;;;;;5008088;28;20053;-72
2024/01/23 10:43:29;;;;;;;4.35;1.02;;;5.50;99.90;;;;;;5007888;28;20065;-76
2024/01/23 10:46:02;;;;;;;10.10;1.40;;;5.60;99.90;;;;;;5009046;28;20044;-72
2024/01/23 10:48:29;;;;;;;7.28;0.82;;;5.70;99.90;;;;;;5007498;28;20042;-74
2024/01/23 10:51:01;;;;;;;9.00;1.45;;;5.80;99.90;;;;;;5008517;28;20533;-73
2024/01/23 10:53:47;;;;;;;13.57;1.13;;;6.00;99.90;;;;;;5007139;28;20037;-72
2024/01/23 10:56:15;;;;;;;8.95;1.33;;;6.20;99.90;;;;;;5008140;28;20439;-73
2024/01/23 10:58:44;;;;;;;7.80;1.60;;;6.40;99.90;;;;;;5008220;28;20038;-73
2024/01/23 11:01:13;;;;;;;11.27;1.17;;;6.70;99.90;;;;;;5014111;28;20040;-73
2024/01/23 11:03:39;;;;;;;9.30;1.30;;;6.90;99.90;;;;;;5001569;28;20036;-74
2024/01/23 11:06:12;;;;;;;4.45;1.10;;;7.00;99.90;;;;;;5002260;28;20042;-73
2024/01/23 11:08:47;;;;;;;8.25;1.30;;;7.10;99.90;;;;;;5001277;28;20034;-73
2024/01/23 11:11:35;;;;;;;4.50;1.13;;;7.10;99.90;;;;;;5006349;28;20030;-73
2024/01/23 11:14:18;;;;;;;5.10;0.80;;;6.80;99.90;;;;;;5005714;28;20074;-73
2024/01/23 11:17:06;;;;;;;2.97;0.73;;;6.90;99.90;;;;;;5010953;28;20037;-73
2024/01/23 11:19:40;;;;;;;8.40;0.88;;;7.00;99.90;;;;;;5008647;28;20076;-73
2024/01/23 11:22:05;;;;;;;6.47;1.35;;;7.10;99.90;;;;;;5004679;28;20045;-73
2024/01/23 11:24:42;;;;;;;9.95;1.08;;;7.30;99.90;;;;;;5009157;28;20518;-73
2024/01/23 11:27:08;;;;;;;8.98;1.00;;;7.30;99.90;;;;;;5009510;28;20032;-73
2024/01/23 11:29:35;;;;;;;7.38;0.98;;;7.20;99.90;;;;;;5008342;28;20033;-72
2024/01/23 11:32:02;;;;;;;9.23;1.50;;;7.20;99.90;;;;;;5012023;28;20033;-72
2024/01/23 11:34:29;;;;;;;13.82;1.95;;;7.40;99.90;;;;;;5010845;28;20018;-72
2024/01/23 11:36:55;;;;;;;11.00;1.30;;;7.30;99.90;;;;;;5012012;28;20485;-72
2024/01/23 11:39:22;;;;;;;8.60;1.50;;;7.30;99.90;;;;;;5011251;28;20026;-72
2024/01/23 11:41:50;;;;;;;8.32;1.20;;;7.30;99.90;;;;;;5010940;28;20032;-71
2024/01/23 11:44:16;;;;;;;8.55;1.45;;;7.30;99.90;;;;;;5010357;28;20045;-73
2024/01/23 11:46:43;;;;;;;13.40;2.38;;;7.40;99.90;;;;;;5011826;28;20062;-74
2024/01/23 11:49:10;;;;;;;10.27;1.77;;;7.50;99.90;;;;;;5012014;28;20037;-74
2024/01/23 11:51:37;;;;;;;13.50;1.55;;;7.30;99.90;;;;;;5011091;28;20033;-73
2024/01/23 11:54:09;;;;;;;9.73;1.40;;;7.20;99.90;;;;;;5011040;28;20753;-73
2024/01/23 11:56:39;;;;;;;8.75;1.30;;;7.40;99.90;;;;;;5010898;28;20124;-73
2024/01/23 11:59:05;;;;;;;3.92;1.10;;;7.60;99.90;;;;;;5011286;28;20034;-73
2024/01/23 12:01:32;;;;;;;9.13;1.55;;;7.50;99.90;;;;;;5009471;28;20042;-73
2024/01/23 12:03:58;;;;;;;10.13;1.65;;;7.40;99.90;;;;;;5011570;28;20034;-73
2024/01/23 12:06:28;;;;;;;7.30;1.15;;;7.30;99.90;;;;;;5010832;28;20125;-74
2024/01/23 12:08:55;;;;;;;9.45;1.73;;;7.30;99.90;;;;;;5011340;28;20671;-73
2024/01/23 12:11:20;;;;;;;4.60;1.15;;;7.20;99.90;;;;;;5009832;28;20034;-73
2024/01/23 12:13:50;;;;;;;8.27;1.48;;;7.30;99.90;;;;;;5009718;28;20101;-74
2024/01/23 12:16:17;;;;;;;12.60;1.45;;;7.30;99.90;;;;;;5022008;28;20094;-73
2024/01/23 12:18:44;;;;;;;10.10;1.52;;;7.30;99.90;;;;;;5010365;28;20041;-73
2024/01/23 12:21:11;;;;;;;17.30;2.97;;;7.50;99.90;;;;;;5011322;28;20025;-73
2024/01/23 12:23:37;;;;;;;8.75;1.40;;;7.60;99.90;;;;;;5010591;28;20030;-74
2024/01/23 12:26:04;;;;;;;6.40;1.20;;;7.70;99.90;;;;;;5009005;28;20038;-73
2024/01/23 12:28:32;;;;;;;9.00;1.60;;;7.60;99.90;;;;;;5010306;28;20407;-75
2024/01/23 12:30:58;;;;;;;12.70;1.70;;;7.60;99.90;;;;;;5010965;28;20025;-77
2024/01/23 12:33:25;;;;;;;12.65;1.90;;;8.00;99.90;;;;;;5004348;28;20038;-73
2024/01/23 12:35:51;;;;;;;8.98;1.17;;;8.30;99.90;;;;;;5010701;28;20030;-75
2024/01/23 12:38:19;;;;;;;14.00;1.55;;;8.50;99.90;;;;;;5009022;28;20026;-73
2024/01/23 12:40:46;;;;;;;13.50;1.80;;;8.20;99.90;;;;;;5002517;28;20045;-74
2024/01/23 12:43:12;;;;;;;18.00;1.45;;;7.80;99.90;;;;;;5008997;28;20088;-72
2024/01/23 12:45:38;;;;;;;14.32;1.48;;;7.60;99.90;;;;;;5010160;28;20026;-73
2024/01/23 12:48:06;;;;;;;11.95;1.17;;;8.00;99.90;;;;;;5000834;28;20026;-73
2024/01/23 12:50:34;;;;;;;13.48;1.60;;;8.30;99.90;;;;;;5010013;28;20485;-74